Time;durP1;ratioP1;P1;durP2;ratioP2;P2;SDS_P1;SDS_P2;PMS_P1;PMS_P2;Temp;Humidity;BMP_temperature;BMP_pressure;BME280_temperature;BME280_humidity;BME280_pressure;Samples;Min_cycle;Max_cycle;Signal;HPM_P1;HPM_P2
2024/01/31 00:01:16;;;;;;;;;;;5.60;88.40;;;;;;4166273;28;19924;-79
2024/01/31 00:03:35;;;;;;;;;;;5.60;87.70;;;;;;4165516;28;20390;-79
2024/01/31 00:05:54;;;;;;;;;;;5.50;87.70;;;;;;4161077;28;19991;-82
2024/01/31 00:08:14;;;;;;;;;;;5.70;87.80;;;;;;4164804;28;20506;-79
2024/01/31 00:10:33;;;;;;;;;;;5.50;87.80;;;;;;4160004;28;20026;-79
2024/01/31 00:12:52;;;;;;;;;;;5.50;87.90;;;;;;4167116;28;19932;-83
2024/01/31 00:15:13;;;;;;;;;;;5.50;87.90;;;;;;4165197;28;20417;-81
2024/01/31 00:17:32;;;;;;;;;;;5.50;88.00;;;;;;4164715;28;19931;-81
2024/01/31 00:19:51;;;;;;;;;;;5.40;88.00;;;;;;4164888;28;19967;-80
2024/01/31 00:22:10;;;;;;;;;;;5.40;88.20;;;;;;4165367;28;20435;-82
2024/01/31 00:24:29;;;;;;;;;;;5.40;88.10;;;;;;4162274;28;19928;-79
2024/01/31 00:26:49;;;;;;;;;;;5.50;88.20;;;;;;4165878;28;20122;-79
2024/01/31 00:29:08;;;;;;;;;;;5.50;88.90;;;;;;4168549;28;19967;-82
2024/01/31 00:31:27;;;;;;;;;;;5.50;88.20;;;;;;4169871;28;20541;-81
2024/01/31 00:33:47;;;;;;;;;;;5.50;88.30;;;;;;4161666;28;19919;-81
2024/01/31 00:36:06;;;;;;;;;;;5.50;88.20;;;;;;4167652;28;19920;-82
2024/01/31 00:38:25;;;;;;;;;;;5.50;88.20;;;;;;4161527;28;19923;-80
2024/01/31 00:40:44;;;;;;;;;;;5.50;88.10;;;;;;4161552;28;19917;-81
2024/01/31 00:43:04;;;;;;;;;;;5.50;88.20;;;;;;4166313;28;19932;-80
2024/01/31 00:45:23;;;;;;;;;;;5.50;88.90;;;;;;4164007;28;19923;-79
2024/01/31 00:47:43;;;;;;;;;;;5.50;88.90;;;;;;4166160;28;19920;-80
2024/01/31 00:50:02;;;;;;;;;;;5.50;88.20;;;;;;4176845;28;19920;-81
2024/01/31 00:52:22;;;;;;;;;;;5.50;88.20;;;;;;4166157;28;19921;-79
2024/01/31 00:54:41;;;;;;;;;;;5.50;88.10;;;;;;4165257;28;19936;-81
2024/01/31 00:57:01;;;;;;;;;;;5.40;87.90;;;;;;4166255;28;19927;-84
2024/01/31 00:59:20;;;;;;;;;;;5.40;88.40;;;;;;4165998;28;19967;-82
2024/01/31 01:01:39;;;;;;;;;;;5.40;87.80;;;;;;4161678;28;19904;-81
2024/01/31 01:03:59;;;;;;;;;;;5.30;87.70;;;;;;4175813;28;20784;-81
2024/01/31 01:06:18;;;;;;;;;;;5.30;87.70;;;;;;4164247;28;19964;-84
2024/01/31 01:08:37;;;;;;;;;;;5.30;87.50;;;;;;4167532;28;19920;-84
2024/01/31 01:10:56;;;;;;;;;;;5.30;88.10;;;;;;4159466;28;19967;-81
2024/01/31 01:13:16;;;;;;;;;;;5.30;87.30;;;;;;4164681;28;20298;-81
2024/01/31 01:15:35;;;;;;;;;;;5.30;87.30;;;;;;4167585;28;19941;-81
2024/01/31 01:17:54;;;;;;;;;;;5.30;87.20;;;;;;4165306;28;19920;-82
2024/01/31 01:20:13;;;;;;;;;;;5.20;86.90;;;;;;4165426;28;19944;-79
2024/01/31 01:22:33;;;;;;;;;;;5.20;87.70;;;;;;4162970;28;19927;-81
2024/01/31 01:24:52;;;;;;;;;;;5.30;87.00;;;;;;4164002;28;19952;-80
2024/01/31 01:27:12;;;;;;;;;;;5.30;87.00;;;;;;4163871;28;19958;-81
2024/01/31 01:29:31;;;;;;;;;;;5.30;86.80;;;;;;4164037;28;19919;-80
2024/01/31 01:31:50;;;;;;;;;;;5.30;86.60;;;;;;4168072;28;19971;-80
2024/01/31 01:34:11;;;;;;;;;;;5.30;86.50;;;;;;4167166;28;20472;-79
2024/01/31 01:36:30;;;;;;;;;;;5.30;86.30;;;;;;4164484;28;19991;-79
2024/01/31 01:38:49;;;;;;;;;;;5.30;86.20;;;;;;4161556;28;20437;-78
2024/01/31 01:41:09;;;;;;;;;;;5.30;86.80;;;;;;4162650;28;20520;-80
2024/01/31 01:43:28;;;;;;;;;;;5.30;86.00;;;;;;4163553;28;19975;-80
2024/01/31 01:45:47;;;;;;;;;;;5.20;86.60;;;;;;4159091;28;19920;-80
2024/01/31 01:48:07;;;;;;;;;;;5.20;85.70;;;;;;4160532;28;19955;-80
2024/01/31 01:50:26;;;;;;;;;;;5.20;85.70;;;;;;4163180;28;20001;-80
2024/01/31 01:52:46;;;;;;;;;;;5.20;86.20;;;;;;4159232;28;20661;-79
2024/01/31 01:55:06;;;;;;;;;;;5.20;85.40;;;;;;4163387;28;19963;-77
2024/01/31 01:57:25;;;;;;;;;;;5.30;85.40;;;;;;4163734;28;19962;-79
2024/01/31 01:59:45;;;;;;;;;;;5.30;85.30;;;;;;4162868;28;19987;-78
2024/01/31 02:02:04;;;;;;;;;;;5.20;85.90;;;;;;4162787;28;20396;-80
2024/01/31 02:04:24;;;;;;;;;;;5.20;85.00;;;;;;4167129;28;20411;-79
2024/01/31 02:06:44;;;;;;;;;;;5.20;85.10;;;;;;4161149;28;19924;-78
2024/01/31 02:09:03;;;;;;;;;;;5.20;84.90;;;;;;4165428;28;20322;-79
2024/01/31 02:11:22;;;;;;;;;;;5.20;84.80;;;;;;4161489;28;19920;-79
2024/01/31 02:13:41;;;;;;;;;;;5.20;85.30;;;;;;4164030;28;19956;-80
2024/01/31 02:16:00;;;;;;;;;;;5.20;84.50;;;;;;4162299;28;19975;-83
2024/01/31 02:18:21;;;;;;;;;;;5.30;84.40;;;;;;4163794;28;20334;-82
2024/01/31 02:20:40;;;;;;;;;;;5.20;84.20;;;;;;4163430;28;19924;-82
2024/01/31 02:22:59;;;;;;;;;;;5.10;83.90;;;;;;4161461;28;20518;-82
2024/01/31 02:25:18;;;;;;;;;;;5.30;84.10;;;;;;4168309;28;19920;-80
2024/01/31 02:27:37;;;;;;;;;;;5.20;83.90;;;;;;4161220;28;20321;-81
2024/01/31 02:29:57;;;;;;;;;;;5.20;84.00;;;;;;4164834;28;19987;-78
2024/01/31 02:32:16;;;;;;;;;;;5.20;83.80;;;;;;4162588;28;20011;-80
2024/01/31 02:34:35;;;;;;;;;;;5.20;83.60;;;;;;4163818;28;19931;-78
2024/01/31 02:36:54;;;;;;;;;;;5.10;83.40;;;;;;4161354;28;19971;-81
2024/01/31 02:39:14;;;;;;;;;;;5.10;83.10;;;;;;4159979;28;19951;-79
2024/01/31 02:41:33;;;;;;;;;;;5.10;83.80;;;;;;4164394;28;20453;-82
2024/01/31 02:43:52;;;;;;;;;;;5.10;83.60;;;;;;4169071;28;19932;-81
2024/01/31 02:46:11;;;;;;;;;;;5.10;83.00;;;;;;4177603;28;21196;-83
2024/01/31 02:48:30;;;;;;;;;;;5.10;82.90;;;;;;4167757;28;20299;-81
2024/01/31 02:50:50;;;;;;;;;;;5.10;82.80;;;;;;4167126;28;19975;-82
2024/01/31 02:53:09;;;;;;;;;;;5.10;82.60;;;;;;4163829;28;19920;-82
2024/01/31 02:55:28;;;;;;;;;;;5.10;82.60;;;;;;4165862;28;19927;-81
2024/01/31 02:57:47;;;;;;;;;;;5.10;82.40;;;;;;4167140;28;20617;-82
2024/01/31 03:00:09;;;;;;;;;;;5.10;82.30;;;;;;4166018;28;19939;-81
2024/01/31 03:02:29;;;;;;;;;;;5.00;82.10;;;;;;4165054;28;20549;-79
2024/01/31 03:04:48;;;;;;;;;;;5.00;81.90;;;;;;4165054;28;19982;-82
2024/01/31 03:07:08;;;;;;;;;;;5.10;82.10;;;;;;4165720;28;19959;-80
2024/01/31 03:09:27;;;;;;;;;;;5.00;81.80;;;;;;4170426;28;19924;-79
2024/01/31 03:11:47;;;;;;;;;;;5.00;81.70;;;;;;4163203;28;20425;-80
2024/01/31 03:14:06;;;;;;;;;;;5.00;82.40;;;;;;4163892;28;20050;-80
2024/01/31 03:16:25;;;;;;;;;;;5.10;82.30;;;;;;4163263;28;19932;-80
2024/01/31 03:18:44;;;;;;;;;;;5.10;81.70;;;;;;4163863;28;19920;-80
2024/01/31 03:21:04;;;;;;;;;;;5.10;81.30;;;;;;4164139;28;20369;-78
2024/01/31 03:23:23;;;;;;;;;;;5.00;81.00;;;;;;4163733;28;19947;-81
2024/01/31 03:25:42;;;;;;;;;;;5.00;80.70;;;;;;4163066;28;19920;-80
2024/01/31 03:28:02;;;;;;;;;;;5.00;81.60;;;;;;4166403;28;19971;-79
2024/01/31 03:30:21;;;;;;;;;;;5.00;81.00;;;;;;4165272;28;20055;-81
2024/01/31 03:32:40;;;;;;;;;;;5.00;80.00;;;;;;4168310;28;19928;-82
2024/01/31 03:35:00;;;;;;;;;;;5.00;80.00;;;;;;4161762;28;19970;-82
2024/01/31 03:37:19;;;;;;;;;;;5.00;79.80;;;;;;4168895;28;19919;-82
2024/01/31 03:39:38;;;;;;;;;;;5.00;79.80;;;;;;4167829;28;20336;-82
2024/01/31 03:41:58;;;;;;;;;;;5.00;80.30;;;;;;4165457;28;20001;-82
2024/01/31 03:44:16;;;;;;;;;;;5.00;79.40;;;;;;4171482;28;19920;-83
2024/01/31 03:46:36;;;;;;;;;;;5.00;79.20;;;;;;4173293;28;19986;-82
2024/01/31 03:48:55;;;;;;;;;;;5.00;79.00;;;;;;4163588;28;19920;-83
2024/01/31 03:51:21;;;;;;;;;;;5.00;78.50;;;;;;4168799;28;19973;-79
2024/01/31 03:53:41;;;;;;;;;;;5.00;78.50;;;;;;4169499;28;19944;-82
2024/01/31 03:56:00;;;;;;;;;;;5.00;78.20;;;;;;4166280;28;19927;-80
2024/01/31 03:58:19;;;;;;;;;;;5.00;77.70;;;;;;4168866;28;19920;-80
2024/01/31 04:00:38;;;;;;;;;;;4.90;77.30;;;;;;4171264;28;19947;-80
2024/01/31 04:02:58;;;;;;;;;;;4.90;77.60;;;;;;4169389;28;19924;-82
2024/01/31 04:05:17;;;;;;;;;;;4.90;77.20;;;;;;4165265;28;19971;-82
2024/01/31 04:07:36;;;;;;;;;;;5.00;77.10;;;;;;4169231;28;19958;-79
2024/01/31 04:09:56;;;;;;;;;;;4.90;76.90;;;;;;4165040;28;20333;-81
2024/01/31 04:12:15;;;;;;;;;;;5.00;77.40;;;;;;4167751;28;20020;-80
2024/01/31 04:14:34;;;;;;;;;;;5.00;77.10;;;;;;4165881;28;19936;-81
2024/01/31 04:16:53;;;;;;;;;;;5.00;77.00;;;;;;4168156;28;19984;-82
2024/01/31 04:19:13;;;;;;;;;;;4.90;76.70;;;;;;4173518;28;19919;-82
2024/01/31 04:21:32;;;;;;;;;;;5.00;77.60;;;;;;4164985;28;19924;-80
2024/01/31 04:23:51;;;;;;;;;;;4.90;77.60;;;;;;4162617;28;19932;-79
2024/01/31 04:26:10;;;;;;;;;;;5.00;77.20;;;;;;4177257;28;20038;-82
2024/01/31 04:28:30;;;;;;;;;;;5.00;77.10;;;;;;4170690;28;19936;-80
2024/01/31 04:30:49;;;;;;;;;;;5.00;77.00;;;;;;4169831;28;21496;-81
2024/01/31 04:33:08;;;;;;;;;;;4.90;77.10;;;;;;4164116;28;19924;-79
2024/01/31 04:35:28;;;;;;;;;;;5.00;77.30;;;;;;4164292;28;20047;-81
2024/01/31 04:37:47;;;;;;;;;;;4.90;77.20;;;;;;4166664;28;19986;-80
2024/01/31 04:40:07;;;;;;;;;;;4.90;76.90;;;;;;4165179;28;20011;-81
2024/01/31 04:42:26;;;;;;;;;;;4.90;77.10;;;;;;4166281;28;20022;-82
2024/01/31 04:44:45;;;;;;;;;;;4.90;77.00;;;;;;4165170;28;20381;-82
2024/01/31 04:47:05;;;;;;;;;;;4.90;77.80;;;;;;4177338;28;19923;-81
2024/01/31 04:49:24;;;;;;;;;;;4.90;77.20;;;;;;4165505;28;19921;-83
2024/01/31 04:51:43;;;;;;;;;;;4.90;77.30;;;;;;4163770;28;20392;-83
2024/01/31 04:54:02;;;;;;;;;;;4.90;77.50;;;;;;4165481;28;20015;-83
2024/01/31 04:56:21;;;;;;;;;;;4.90;77.30;;;;;;4163211;28;20488;-82
2024/01/31 04:58:41;;;;;;;;;;;4.90;77.50;;;;;;4164512;28;19928;-80
2024/01/31 05:01:00;;;;;;;;;;;4.90;77.10;;;;;;4166581;28;19995;-80
2024/01/31 05:03:19;;;;;;;;;;;4.90;77.10;;;;;;4168871;28;20439;-81
2024/01/31 05:05:38;;;;;;;;;;;4.90;77.10;;;;;;4164174;28;19956;-81
2024/01/31 05:07:57;;;;;;;;;;;4.90;77.20;;;;;;4166438;28;20112;-81
2024/01/31 05:10:18;;;;;;;;;;;4.80;77.20;;;;;;4164043;28;19923;-81
2024/01/31 05:12:37;;;;;;;;;;;4.80;76.70;;;;;;4169741;28;19924;-80
2024/01/31 05:14:56;;;;;;;;;;;4.80;76.60;;;;;;4162012;28;19967;-81
2024/01/31 05:17:16;;;;;;;;;;;4.70;77.30;;;;;;4163449;28;19921;-79
2024/01/31 05:19:35;;;;;;;;;;;4.80;76.60;;;;;;4168891;28;20327;-78
2024/01/31 05:21:54;;;;;;;;;;;4.80;76.70;;;;;;4164474;28;19924;-78
2024/01/31 05:24:13;;;;;;;;;;;4.80;76.90;;;;;;4164321;28;19970;-78
2024/01/31 05:26:33;;;;;;;;;;;4.90;77.10;;;;;;4161141;28;19942;-79
2024/01/31 05:28:52;;;;;;;;;;;4.80;77.20;;;;;;4163176;28;20385;-78
2024/01/31 05:31:11;;;;;;;;;;;4.80;77.40;;;;;;4160761;28;19963;-77
2024/01/31 05:33:31;;;;;;;;;;;4.80;77.50;;;;;;4159820;28;19963;-77
2024/01/31 05:35:50;;;;;;;;;;;4.80;77.40;;;;;;4166195;28;20003;-77
2024/01/31 05:38:09;;;;;;;;;;;4.80;77.50;;;;;;4162629;28;19920;-78
2024/01/31 05:40:29;;;;;;;;;;;4.90;77.50;;;;;;4162329;28;20342;-77
2024/01/31 05:42:48;;;;;;;;;;;4.90;78.20;;;;;;4165002;28;19932;-77
2024/01/31 05:45:08;;;;;;;;;;;4.80;77.30;;;;;;4161130;28;19954;-77
2024/01/31 05:47:26;;;;;;;;;;;4.90;77.30;;;;;;4160688;28;20010;-76
2024/01/31 05:49:45;;;;;;;;;;;4.90;77.30;;;;;;4157192;28;19924;-77
2024/01/31 05:52:05;;;;;;;;;;;4.90;77.20;;;;;;4163120;28;19927;-77
2024/01/31 05:54:24;;;;;;;;;;;4.90;77.20;;;;;;4159071;28;20810;-78
2024/01/31 05:56:43;;;;;;;;;;;4.90;77.20;;;;;;4162071;28;20034;-77
2024/01/31 05:59:02;;;;;;;;;;;4.90;77.80;;;;;;4161271;28;19919;-77
2024/01/31 06:01:22;;;;;;;;;;;4.90;77.50;;;;;;4166138;28;20383;-78
2024/01/31 06:03:41;;;;;;;;;;;4.90;76.50;;;;;;4165021;28;20282;-77
2024/01/31 06:06:00;;;;;;;;;;;4.90;76.60;;;;;;4168152;28;19986;-78
2024/01/31 06:08:23;;;;;;;;;;;4.90;76.80;;;;;;4162696;28;19975;-78
2024/01/31 06:10:41;;;;;;;;;;;4.80;76.70;;;;;;4165773;28;19939;-78
2024/01/31 06:13:01;;;;;;;;;;;4.80;75.70;;;;;;4164907;28;19932;-78
2024/01/31 06:15:24;;;;;;;;;;;4.80;76.20;;;;;;4159928;28;19923;-78
2024/01/31 06:17:43;;;;;;;;;;;4.80;75.40;;;;;;4160375;28;19967;-77
2024/01/31 06:20:04;;;;;;;;;;;4.90;76.40;;;;;;4162640;28;19920;-78
2024/01/31 06:22:24;;;;;;;;;;;4.80;75.70;;;;;;4161991;28;19923;-77
2024/01/31 06:24:43;;;;;;;;;;;4.80;75.70;;;;;;4164201;28;19928;-77
2024/01/31 06:27:02;;;;;;;;;;;4.80;75.50;;;;;;4163816;28;20440;-76
2024/01/31 06:29:21;;;;;;;;;;;4.70;75.40;;;;;;4160795;28;19923;-78
2024/01/31 06:31:46;;;;;;;;;;;4.70;75.60;;;;;;4161023;28;19981;-77
2024/01/31 06:34:06;;;;;;;;;;;4.70;75.60;;;;;;4161092;28;20016;-78
2024/01/31 06:36:25;;;;;;;;;;;4.70;75.80;;;;;;4160242;28;19919;-77
2024/01/31 06:38:44;;;;;;;;;;;4.60;75.80;;;;;;4162602;28;20349;-78
2024/01/31 06:41:03;;;;;;;;;;;4.60;75.90;;;;;;4157281;28;19928;-77
2024/01/31 06:43:24;;;;;;;;;;;4.60;75.90;;;;;;4159762;28;19983;-78
2024/01/31 06:45:45;;;;;;;;;;;4.60;76.00;;;;;;4159386;28;19920;-77
2024/01/31 06:48:07;;;;;;;;;;;4.60;76.70;;;;;;4163511;28;19931;-79
2024/01/31 06:50:27;;;;;;;;;;;4.50;76.70;;;;;;4166336;28;20000;-78
2024/01/31 06:52:47;;;;;;;;;;;4.50;76.00;;;;;;4165793;28;19928;-78
2024/01/31 06:55:06;;;;;;;;;;;4.50;76.00;;;;;;4165943;28;19976;-76
2024/01/31 06:57:25;;;;;;;;;;;4.50;76.10;;;;;;4163879;28;20436;-78
2024/01/31 06:59:44;;;;;;;;;;;4.40;76.20;;;;;;4160792;28;19983;-78
2024/01/31 07:02:04;;;;;;;;;;;4.40;76.30;;;;;;4163228;28;19927;-77
2024/01/31 07:04:23;;;;;;;;;;;4.40;76.50;;;;;;4164117;28;19927;-78
2024/01/31 07:06:42;;;;;;;;;;;4.40;76.50;;;;;;4163558;28;19939;-77
2024/01/31 07:09:02;;;;;;;;;;;4.40;76.70;;;;;;4165117;28;19982;-78
2024/01/31 07:11:21;;;;;;;;;;;4.30;76.70;;;;;;4163717;28;19928;-77
2024/01/31 07:13:40;;;;;;;;;;;4.30;77.50;;;;;;4165322;28;19947;-78
2024/01/31 07:16:00;;;;;;;;;;;4.30;77.50;;;;;;4164687;28;20298;-77
2024/01/31 07:18:19;;;;;;;;;;;4.30;76.80;;;;;;4162535;28;20422;-78
2024/01/31 07:20:38;;;;;;;;;;;4.30;76.80;;;;;;4161214;28;19920;-82
2024/01/31 07:22:57;;;;;;;;;;;4.20;76.40;;;;;;4160632;28;19979;-77
2024/01/31 07:25:17;;;;;;;;;;;4.20;76.70;;;;;;4158627;28;20440;-78
2024/01/31 07:27:38;;;;;;;;;;;4.20;76.80;;;;;;4159890;28;19919;-76
2024/01/31 07:29:57;;;;;;;;;;;4.20;76.80;;;;;;4161893;28;19923;-77
2024/01/31 07:32:16;;;;;;;;;;;4.10;76.60;;;;;;4163157;28;19927;-78
2024/01/31 07:34:35;;;;;;;;;;;4.10;76.60;;;;;;4162849;28;19924;-78
2024/01/31 07:36:55;;;;;;;;;;;4.10;76.80;;;;;;4162726;28;19963;-77
2024/01/31 07:39:14;;;;;;;;;;;4.10;76.90;;;;;;4163451;28;19996;-78
2024/01/31 07:41:34;;;;;;;;;;;4.00;76.90;;;;;;4159275;28;19927;-79
2024/01/31 07:43:53;;;;;;;;;;;4.00;77.10;;;;;;4162933;28;19928;-77
2024/01/31 07:46:12;;;;;;;;;;;4.00;77.90;;;;;;4159425;28;19928;-77
2024/01/31 07:48:31;;;;;;;;;;;4.00;77.30;;;;;;4158506;28;19974;-79
2024/01/31 07:50:52;;;;;;;;;;;4.00;77.00;;;;;;4158967;28;19928;-77
2024/01/31 07:53:14;;;;;;;;;;;4.00;77.40;;;;;;4159221;28;19923;-76
2024/01/31 07:55:34;;;;;;;;;;;4.00;77.80;;;;;;4162480;28;20325;-78
2024/01/31 07:57:54;;;;;;;;;;;4.00;77.90;;;;;;4158763;28;20061;-78
2024/01/31 08:00:13;;;;;;;;;;;4.00;78.10;;;;;;4163137;28;20006;-78
2024/01/31 08:02:32;;;;;;;;;;;4.00;78.20;;;;;;4162149;28;19940;-79
2024/01/31 08:04:54;;;;;;;;;;;4.00;78.90;;;;;;4162067;28;19927;-78
2024/01/31 08:07:13;;;;;;;;;;;4.00;79.00;;;;;;4157870;28;19920;-79
2024/01/31 08:09:33;;;;;;;;;;;4.00;78.40;;;;;;4157791;28;19928;-76
2024/01/31 08:11:52;;;;;;;;;;;4.00;78.40;;;;;;4163519;28;20006;-78
2024/01/31 08:14:11;;;;;;;;;;;4.00;78.60;;;;;;4165313;28;19924;-79
2024/01/31 08:16:31;;;;;;;;;;;4.00;78.70;;;;;;4166120;28;20310;-78
2024/01/31 08:18:50;;;;;;;;;;;4.00;78.80;;;;;;4166101;28;20075;-79
2024/01/31 08:21:09;;;;;;;;;;;4.10;78.80;;;;;;4166613;28;19946;-78
2024/01/31 08:23:29;;;;;;;;;;;4.10;79.20;;;;;;4163829;28;20095;-76
2024/01/31 08:25:48;;;;;;;;;;;4.10;80.00;;;;;;4161400;28;19959;-79
2024/01/31 08:28:07;;;;;;;;;;;4.10;79.30;;;;;;4161845;28;19940;-77
2024/01/31 08:30:26;;;;;;;;;;;4.10;80.00;;;;;;4160644;28;20554;-78
2024/01/31 08:32:46;;;;;;;;;;;4.20;79.40;;;;;;4163906;28;19933;-79
2024/01/31 08:35:05;;;;;;;;;;;4.20;79.40;;;;;;4165977;28;19959;-79
2024/01/31 08:37:25;;;;;;;;;;;4.20;79.00;;;;;;4161462;28;21554;-77
2024/01/31 08:39:44;;;;;;;;;;;4.20;79.30;;;;;;4163640;28;19967;-77
2024/01/31 08:42:04;;;;;;;;;;;4.30;79.60;;;;;;4159326;28;19941;-78
2024/01/31 08:44:23;;;;;;;;;;;4.30;79.40;;;;;;4162008;28;19927;-79
2024/01/31 08:46:42;;;;;;;;;;;4.30;79.50;;;;;;4164256;28;19971;-79
2024/01/31 08:49:02;;;;;;;;;;;4.30;79.60;;;;;;4161923;28;19959;-78
2024/01/31 08:51:21;;;;;;;;;;;4.50;79.90;;;;;;4161641;28;19928;-78
2024/01/31 08:53:42;;;;;;;;;;;4.40;80.70;;;;;;4164887;28;19931;-78
2024/01/31 08:56:01;;;;;;;;;;;4.50;81.00;;;;;;4164835;28;19947;-77
2024/01/31 08:58:20;;;;;;;;;;;4.50;80.50;;;;;;4159714;28;19975;-78
2024/01/31 09:00:40;;;;;;;;;;;4.60;80.50;;;;;;4165092;28;19987;-78
2024/01/31 09:02:59;;;;;;;;;;;4.60;80.50;;;;;;4160346;28;20471;-77
2024/01/31 09:05:18;;;;;;;;;;;4.70;80.70;;;;;;4162969;28;19923;-77
2024/01/31 09:07:38;;;;;;;;;;;4.70;80.70;;;;;;4161748;28;21643;-77
2024/01/31 09:09:57;;;;;;;;;;;4.80;80.80;;;;;;4162671;28;19919;-78
2024/01/31 09:12:16;;;;;;;;;;;4.90;81.60;;;;;;4164198;28;19932;-78
2024/01/31 09:14:35;;;;;;;;;;;4.90;80.70;;;;;;4159916;28;19974;-77
2024/01/31 09:16:55;;;;;;;;;;;4.90;80.60;;;;;;4159739;28;19924;-77
2024/01/31 09:19:14;;;;;;;;;;;4.80;80.50;;;;;;4165708;28;19955;-76
2024/01/31 09:21:35;;;;;;;;;;;5.00;80.80;;;;;;4162647;28;19970;-77
2024/01/31 09:23:54;;;;;;;;;;;5.00;80.80;;;;;;4159330;28;20099;-76
2024/01/31 09:26:13;;;;;;;;;;;5.10;81.40;;;;;;4160127;28;20303;-78
2024/01/31 09:28:32;;;;;;;;;;;5.20;80.90;;;;;;4164327;28;19932;-78
2024/01/31 09:30:51;;;;;;;;;;;5.20;81.70;;;;;;4161521;28;19975;-78
2024/01/31 09:33:10;;;;;;;;;;;5.30;80.80;;;;;;4159951;28;20006;-77
2024/01/31 09:35:30;;;;;;;;;;;5.30;81.00;;;;;;4157387;28;19929;-77
2024/01/31 09:37:49;;;;;;;;;;;5.30;80.90;;;;;;4162788;28;21167;-78
2024/01/31 09:40:09;;;;;;;;;;;5.30;80.50;;;;;;4164973;28;20463;-77
2024/01/31 09:42:28;;;;;;;;;;;5.40;80.70;;;;;;4159492;28;19927;-77
2024/01/31 09:44:49;;;;;;;;;;;5.40;80.50;;;;;;4161220;28;19985;-78
2024/01/31 09:47:09;;;;;;;;;;;5.50;80.50;;;;;;4166352;28;20659;-78
2024/01/31 09:49:29;;;;;;;;;;;5.50;80.60;;;;;;4162476;28;19995;-78
2024/01/31 09:51:48;;;;;;;;;;;5.60;80.60;;;;;;4153322;28;20229;-78
2024/01/31 09:54:07;;;;;;;;;;;5.60;80.60;;;;;;4155156;28;19975;-78
2024/01/31 09:56:31;;;;;;;;;;;5.60;80.30;;;;;;4162436;28;19928;-78
2024/01/31 09:58:50;;;;;;;;;;;5.60;80.50;;;;;;4164118;28;19932;-79
2024/01/31 10:01:10;;;;;;;;;;;5.70;81.00;;;;;;4163849;28;19920;-77
2024/01/31 10:03:29;;;;;;;;;;;5.70;80.30;;;;;;4159828;28;19927;-77
2024/01/31 10:05:49;;;;;;;;;;;5.80;80.00;;;;;;4160880;28;20472;-78
2024/01/31 10:08:08;;;;;;;;;;;5.90;80.80;;;;;;4163607;28;20646;-78
2024/01/31 10:10:28;;;;;;;;;;;5.80;80.20;;;;;;4163735;28;19924;-79
2024/01/31 10:12:47;;;;;;;;;;;5.90;78.80;;;;;;4165846;28;19924;-79
2024/01/31 10:15:07;;;;;;;;;;;5.90;78.40;;;;;;4166824;28;19923;-79
2024/01/31 10:17:26;;;;;;;;;;;5.90;78.00;;;;;;4179595;28;19927;-77
2024/01/31 10:19:46;;;;;;;;;;;6.00;78.20;;;;;;4174184;28;19967;-77
2024/01/31 10:22:05;;;;;;;;;;;5.80;77.80;;;;;;4175055;28;19927;-77
2024/01/31 10:24:25;;;;;;;;;;;5.90;77.80;;;;;;4177241;28;19970;-79
2024/01/31 10:26:44;;;;;;;;;;;5.90;77.70;;;;;;4178625;28;19964;-79
2024/01/31 10:29:04;;;;;;;;;;;5.90;77.20;;;;;;4183297;28;19994;-77
2024/01/31 10:31:25;;;;;;;;;;;6.10;77.00;;;;;;4173978;28;19924;-76
2024/01/31 10:33:44;;;;;;;;;;;6.00;77.10;;;;;;4175403;28;20048;-77
2024/01/31 10:36:05;;;;;;;;;;;6.00;77.10;;;;;;4178531;28;19919;-78
2024/01/31 10:38:25;;;;;;;;;;;5.90;76.80;;;;;;4170448;28;20359;-77
2024/01/31 10:40:45;;;;;;;;;;;6.00;77.30;;;;;;4179302;28;19919;-77
2024/01/31 10:43:05;;;;;;;;;;;6.00;76.70;;;;;;4177432;28;19915;-77
2024/01/31 10:45:25;;;;;;;;;;;6.00;76.60;;;;;;4177647;28;19934;-78
2024/01/31 10:47:44;;;;;;;;;;;6.00;76.30;;;;;;4176963;28;20775;-78
2024/01/31 10:50:03;;;;;;;;;;;6.10;76.20;;;;;;4174913;28;19928;-79
2024/01/31 10:52:24;;;;;;;;;;;6.10;76.20;;;;;;4178549;28;19947;-77
2024/01/31 10:54:45;;;;;;;;;;;6.10;75.60;;;;;;4174637;28;19939;-77
2024/01/31 10:57:04;;;;;;;;;;;6.10;75.50;;;;;;4174531;28;20236;-78
2024/01/31 10:59:23;;;;;;;;;;;6.10;75.40;;;;;;4177950;28;19955;-77
2024/01/31 11:01:54;;;;;;;;;;;6.20;75.40;;;;;;4178907;28;19959;-77
2024/01/31 11:04:13;;;;;;;;;;;6.10;75.30;;;;;;4182918;28;19931;-77
2024/01/31 11:06:42;;;;;;;;;;;6.10;74.80;;;;;;4173512;28;19923;-77
2024/01/31 11:09:02;;;;;;;;;;;6.10;74.20;;;;;;4156901;28;20279;-77
2024/01/31 11:11:21;;;;;;;;;;;6.10;74.20;;;;;;4162181;28;19999;-79
2024/01/31 11:13:41;;;;;;;;;;;6.20;74.60;;;;;;4165559;28;20361;-80
2024/01/31 11:16:00;;;;;;;;;;;6.10;74.30;;;;;;4162579;28;19923;-78
2024/01/31 11:18:24;;;;;;;;;;;6.20;74.10;;;;;;4164532;28;19919;-77
2024/01/31 11:20:44;;;;;;;;;;;6.20;74.20;;;;;;4162957;28;19955;-79
2024/01/31 11:23:03;;;;;;;;;;;6.10;72.80;;;;;;4167637;28;19975;-79
2024/01/31 11:25:33;;;;;;;;;;;6.10;73.50;;;;;;4158457;28;19923;-78
2024/01/31 11:27:53;;;;;;;;;;;6.10;74.30;;;;;;4158346;28;19959;-79
2024/01/31 11:30:12;;;;;;;;;;;6.10;74.50;;;;;;4161651;28;19956;-78
2024/01/31 11:32:31;;;;;;;;;;;6.20;74.50;;;;;;4161899;28;19975;-79
2024/01/31 11:34:57;;;;;;;;;;;6.10;73.30;;;;;;4163952;28;19994;-77
2024/01/31 11:37:17;;;;;;;;;;;6.20;73.90;;;;;;4161513;28;20587;-79
2024/01/31 11:39:36;;;;;;;;;;;6.20;73.40;;;;;;4162360;28;19924;-79
2024/01/31 11:41:55;;;;;;;;;;;6.20;73.30;;;;;;4159332;28;19923;-78
2024/01/31 11:44:15;;;;;;;;;;;6.20;73.00;;;;;;4159514;28;19941;-78
2024/01/31 11:46:34;;;;;;;;;;;6.20;73.20;;;;;;4149346;28;20999;-77
2024/01/31 11:48:54;;;;;;;;;;;6.20;73.20;;;;;;4163775;28;19977;-79
2024/01/31 11:51:13;;;;;;;;;;;6.30;72.40;;;;;;4158307;28;19935;-78
2024/01/31 11:53:32;;;;;;;;;;;6.20;71.80;;;;;;4167118;28;19923;-77
2024/01/31 11:55:52;;;;;;;;;;;6.30;72.30;;;;;;4163626;28;19928;-79
2024/01/31 11:58:11;;;;;;;;;;;6.20;73.20;;;;;;4159811;28;19943;-79
2024/01/31 12:00:30;;;;;;;;;;;6.20;72.20;;;;;;4163856;28;19975;-77
2024/01/31 12:02:49;;;;;;;;;;;6.20;72.10;;;;;;4157944;28;19958;-78
2024/01/31 12:05:08;;;;;;;;;;;6.20;72.10;;;;;;4160392;28;19928;-77
2024/01/31 12:07:28;;;;;;;;;;;6.20;72.20;;;;;;4159904;28;20406;-76
2024/01/31 12:09:47;;;;;;;;;;;6.20;72.40;;;;;;4163767;28;19935;-78
2024/01/31 12:12:07;;;;;;;;;;;6.20;71.80;;;;;;4165104;28;19944;-78
2024/01/31 12:14:26;;;;;;;;;;;6.10;72.30;;;;;;4164041;28;19987;-79
2024/01/31 12:16:45;;;;;;;;;;;6.10;71.80;;;;;;4145174;28;19935;-78
2024/01/31 12:19:04;;;;;;;;;;;6.10;71.90;;;;;;4166880;28;19923;-78
2024/01/31 12:21:23;;;;;;;;;;;6.10;71.80;;;;;;4162239;28;19927;-78
2024/01/31 12:23:43;;;;;;;;;;;6.10;72.10;;;;;;4160729;28;19964;-78
2024/01/31 12:26:02;;;;;;;;;;;6.00;71.20;;;;;;4160938;28;21554;-77
2024/01/31 12:28:22;;;;;;;;;;;6.10;71.60;;;;;;4160232;28;20432;-77
2024/01/31 12:30:41;;;;;;;;;;;6.00;71.90;;;;;;4161024;28;20393;-79
2024/01/31 12:33:00;;;;;;;;;;;6.00;71.70;;;;;;4157005;28;19928;-77
2024/01/31 12:35:19;;;;;;;;;;;6.00;71.80;;;;;;4159651;28;19971;-78
2024/01/31 12:37:42;;;;;;;;;;;6.00;71.60;;;;;;4160696;28;20398;-78
2024/01/31 12:40:01;;;;;;;;;;;6.00;72.80;;;;;;4162077;28;19967;-78
2024/01/31 12:42:20;;;;;;;;;;;6.00;72.00;;;;;;4161853;28;19967;-79
2024/01/31 12:44:40;;;;;;;;;;;5.90;71.60;;;;;;4162894;28;19924;-80
2024/01/31 12:47:05;;;;;;;;;;;6.00;71.60;;;;;;4165348;28;19987;-77
2024/01/31 12:49:24;;;;;;;;;;;5.90;71.40;;;;;;4158724;28;19924;-79
2024/01/31 12:51:43;;;;;;;;;;;5.80;70.70;;;;;;4163398;28;19920;-77
2024/01/31 12:54:03;;;;;;;;;;;5.80;71.00;;;;;;4166770;28;19923;-78
2024/01/31 12:56:22;;;;;;;;;;;5.80;70.70;;;;;;4163219;28;19987;-79
2024/01/31 12:58:41;;;;;;;;;;;5.70;70.50;;;;;;4157307;28;20003;-78
2024/01/31 13:01:00;;;;;;;;;;;5.70;71.30;;;;;;4161910;28;19928;-78
2024/01/31 13:03:20;;;;;;;;;;;5.70;71.20;;;;;;4158394;28;19936;-79
2024/01/31 13:05:39;;;;;;;;;;;5.60;71.10;;;;;;4162916;28;19924;-78
2024/01/31 13:07:58;;;;;;;;;;;5.60;70.70;;;;;;4160832;28;20463;-80
2024/01/31 13:10:18;;;;;;;;;;;5.60;70.80;;;;;;4160191;28;19963;-79
2024/01/31 13:12:36;;;;;;;;;;;5.60;70.80;;;;;;4163015;28;19924;-79
2024/01/31 13:14:56;;;;;;;;;;;5.70;70.60;;;;;;4166656;28;19923;-78
2024/01/31 13:17:15;;;;;;;;;;;5.50;70.60;;;;;;4156131;28;20131;-78
2024/01/31 13:19:35;;;;;;;;;;;5.70;71.20;;;;;;4164322;28;19924;-79
2024/01/31 13:21:54;;;;;;;;;;;5.60;71.30;;;;;;4166003;28;19966;-79
2024/01/31 13:24:13;;;;;;;;;;;5.50;72.00;;;;;;4160167;28;19979;-78
2024/01/31 13:26:35;;;;;;;;;;;5.50;70.80;;;;;;4156943;28;19924;-78
2024/01/31 13:28:55;;;;;;;;;;;5.50;71.20;;;;;;4161340;28;19924;-77
2024/01/31 13:31:14;;;;;;;;;;;5.50;71.00;;;;;;4169083;28;20022;-77
2024/01/31 13:33:34;;;;;;;;;;;5.50;71.30;;;;;;4162948;28;19924;-79
2024/01/31 13:35:53;;;;;;;;;;;5.50;71.90;;;;;;4162738;28;19952;-78
2024/01/31 13:38:13;;;;;;;;;;;5.50;71.20;;;;;;4162830;28;19979;-77
2024/01/31 13:40:32;;;;;;;;;;;5.50;71.50;;;;;;4162211;28;20408;-78
2024/01/31 13:42:51;;;;;;;;;;;5.40;70.60;;;;;;4163500;28;19971;-77
2024/01/31 13:45:11;;;;;;;;;;;5.40;70.70;;;;;;4162038;28;19924;-78